createdAt,value
2017-12-16T00:00:25.664Z,90.15
2017-12-16T00:01:25.670Z,90.91
2017-12-16T00:02:25.682Z,90.81
2017-12-16T00:03:25.700Z,91.00
2017-12-16T00:04:25.713Z,91.38
2017-12-16T00:05:25.722Z,90.77
2017-12-16T00:06:25.735Z,90.44
2017-12-16T00:07:25.747Z,90.01
2017-12-16T00:08:25.760Z,90.34
2017-12-16T00:09:25.777Z,90.48
2017-12-16T00:10:25.786Z,89.91
2017-12-16T00:11:25.801Z,89.72
2017-12-16T00:12:25.813Z,89.25
2017-12-16T00:13:25.824Z,89.53
2017-12-16T00:14:25.841Z,89.72
2017-12-16T00:15:25.849Z,89.82
2017-12-16T00:16:25.863Z,89.44
2017-12-16T00:17:25.873Z,89.53
2017-12-16T00:18:25.891Z,89.72
2017-12-16T00:19:25.902Z,89.91
2017-12-16T00:20:25.916Z,89.25
2017-12-16T00:21:25.928Z,89.96
2017-12-16T00:22:25.941Z,90.63
2017-12-16T00:23:25.953Z,90.58
2017-12-16T00:24:25.967Z,90.20
2017-12-16T00:25:25.980Z,90.20
2017-12-16T00:26:25.992Z,90.20
2017-12-16T00:27:26.007Z,89.91
2017-12-16T00:28:26.017Z,89.44
2017-12-16T00:29:26.030Z,90.01
2017-12-16T00:30:26.043Z,89.06
2017-12-16T00:31:26.059Z,88.78
2017-12-16T00:32:26.070Z,88.21
2017-12-16T00:33:26.081Z,88.59
2017-12-16T00:34:26.096Z,88.59
2017-12-16T00:35:26.109Z,88.78
2017-12-16T00:36:26.122Z,88.96
2017-12-16T00:37:26.132Z,89.15
2017-12-16T00:38:26.147Z,89.06
2017-12-16T00:39:26.159Z,89.06
2017-12-16T00:40:26.176Z,89.06
2017-12-16T00:41:26.189Z,89.34
2017-12-16T00:42:26.252Z,89.06
2017-12-16T00:43:26.212Z,89.25
2017-12-16T00:44:26.224Z,89.25
2017-12-16T00:45:26.237Z,89.53
2017-12-16T00:46:26.289Z,88.49
2017-12-16T00:47:26.275Z,88.78
2017-12-16T00:48:26.279Z,88.78
2017-12-16T00:49:26.296Z,88.59
2017-12-16T00:50:26.309Z,88.40
2017-12-16T00:51:26.314Z,88.49
2017-12-16T00:52:26.330Z,88.02
2017-12-16T00:53:26.343Z,88.59
2017-12-16T00:54:26.358Z,88.49
2017-12-16T00:55:26.367Z,87.97
2017-12-16T00:56:26.384Z,87.68
2017-12-16T00:57:26.394Z,87.73
2017-12-16T00:58:26.408Z,87.35
2017-12-16T00:59:26.423Z,87.64
2017-12-16T01:00:26.434Z,87.92
2017-12-16T01:01:26.446Z,87.97
2017-12-16T01:02:26.462Z,87.40
2017-12-16T01:03:26.472Z,87.21
2017-12-16T01:04:26.487Z,87.02
2017-12-16T01:05:26.498Z,87.12
2017-12-16T01:06:26.509Z,87.26
2017-12-16T01:07:26.527Z,87.54
2017-12-16T01:08:26.542Z,88.02
2017-12-16T01:09:26.552Z,88.40
2017-12-16T01:10:26.563Z,88.21
2017-12-16T01:11:26.577Z,88.49
2017-12-16T01:12:26.619Z,88.11
2017-12-16T01:13:26.606Z,88.40
2017-12-16T01:14:26.616Z,88.02
2017-12-16T01:15:26.630Z,87.83
2017-12-16T01:16:26.642Z,87.83
2017-12-16T01:17:26.658Z,87.73
2017-12-16T01:18:26.674Z,88.02
2017-12-16T01:19:26.682Z,88.49
2017-12-16T01:20:26.701Z,88.06
2017-12-16T01:21:26.705Z,88.02
2017-12-16T01:22:26.718Z,88.02
2017-12-16T01:23:26.735Z,88.02
2017-12-16T01:24:26.748Z,88.06
2017-12-16T01:25:26.759Z,87.68
2017-12-16T01:26:26.776Z,88.06
2017-12-16T01:27:26.786Z,87.68
2017-12-16T01:28:26.796Z,87.87
2017-12-16T01:29:26.815Z,87.77
2017-12-16T01:30:26.827Z,88.16
2017-12-16T01:31:26.839Z,88.16
2017-12-16T01:32:26.852Z,87.59
2017-12-16T01:33:26.864Z,87.21
2017-12-16T01:34:26.878Z,87.59
2017-12-16T01:35:26.888Z,87.87
2017-12-16T01:36:26.902Z,87.21
2017-12-16T01:37:26.915Z,87.40
2017-12-16T01:38:26.929Z,87.12
2017-12-16T01:39:26.943Z,87.30
2017-12-16T01:40:26.957Z,87.30
2017-12-16T01:41:26.969Z,87.30
2017-12-16T01:42:26.987Z,87.49
2017-12-16T01:43:26.994Z,87.12
2017-12-16T01:44:27.009Z,87.02
2017-12-16T01:45:27.023Z,87.21
2017-12-16T01:46:27.032Z,87.21
2017-12-16T01:47:27.046Z,87.30
2017-12-16T01:48:27.060Z,87.49
2017-12-16T01:49:27.114Z,87.40
2017-12-16T01:50:27.092Z,86.83
2017-12-16T01:51:27.101Z,86.83
2017-12-16T01:52:27.148Z,87.21
2017-12-16T01:53:27.124Z,86.45
2017-12-16T01:54:27.138Z,87.30
2017-12-16T01:55:27.154Z,87.68
2017-12-16T01:56:27.166Z,87.83
2017-12-16T01:57:27.180Z,88.11
2017-12-16T01:58:27.195Z,88.59
2017-12-16T01:59:27.207Z,88.87
2017-12-16T02:00:27.221Z,88.40
2017-12-16T02:01:27.232Z,88.78
2017-12-16T02:02:27.246Z,89.06
2017-12-16T02:03:27.260Z,88.96
2017-12-16T02:04:27.273Z,89.06
2017-12-16T02:05:27.285Z,89.25
2017-12-16T02:06:27.296Z,88.68
2017-12-16T02:07:27.312Z,88.21
2017-12-16T02:08:27.380Z,88.78
2017-12-16T02:09:27.339Z,88.78
2017-12-16T02:10:27.349Z,89.25
2017-12-16T02:11:27.369Z,89.63
2017-12-16T02:12:27.385Z,89.34
2017-12-16T02:13:27.391Z,89.11
2017-12-16T02:14:27.403Z,88.59
2017-12-16T02:15:27.420Z,88.73
2017-12-16T02:16:27.430Z,88.82
2017-12-16T02:17:27.443Z,88.02
2017-12-16T02:18:27.462Z,88.96
2017-12-16T02:19:27.470Z,88.87
2017-12-16T02:20:27.483Z,88.78
2017-12-16T02:21:27.497Z,88.82
2017-12-16T02:22:27.510Z,88.63
2017-12-16T02:23:27.522Z,88.82
2017-12-16T02:24:27.536Z,89.01
2017-12-16T02:25:27.549Z,88.82
2017-12-16T02:26:27.562Z,88.59
2017-12-16T02:27:27.575Z,89.25
2017-12-16T02:28:27.589Z,89.34
2017-12-16T02:29:27.602Z,89.25
2017-12-16T02:30:27.618Z,89.01
2017-12-16T02:31:27.632Z,88.73
2017-12-16T02:32:27.643Z,88.63
2017-12-16T02:33:27.654Z,88.73
2017-12-16T02:34:27.668Z,88.73
2017-12-16T02:35:27.683Z,88.35
2017-12-16T02:36:27.695Z,88.16
2017-12-16T02:37:27.712Z,87.97
2017-12-16T02:38:27.801Z,88.44
2017-12-16T02:39:27.736Z,88.40
2017-12-16T02:40:27.749Z,89.01
2017-12-16T02:41:27.762Z,89.06
2017-12-16T02:42:27.774Z,89.11
2017-12-16T02:43:27.788Z,88.82
2017-12-16T02:44:27.806Z,89.29
2017-12-16T02:45:27.820Z,89.11
2017-12-16T02:46:27.829Z,88.35
2017-12-16T02:47:27.844Z,88.11
2017-12-16T02:48:27.858Z,88.59
2017-12-16T02:49:27.870Z,88.78
2017-12-16T02:50:27.882Z,88.96
2017-12-16T02:51:27.894Z,89.82
2017-12-16T02:52:27.911Z,89.63
2017-12-16T02:53:27.924Z,90.01
2017-12-16T02:54:27.934Z,90.01
2017-12-16T02:55:27.948Z,90.01
2017-12-16T02:56:27.961Z,90.10
2017-12-16T02:57:27.974Z,90.58
2017-12-16T02:58:27.987Z,90.29
2017-12-16T02:59:28.001Z,90.10
2017-12-16T03:00:28.015Z,90.39
2017-12-16T03:01:28.030Z,90.67
2017-12-16T03:02:28.044Z,90.48
2017-12-16T03:03:28.054Z,89.91
2017-12-16T03:04:28.068Z,89.63
2017-12-16T03:05:28.082Z,89.34
2017-12-16T03:06:28.092Z,89.48
2017-12-16T03:07:28.107Z,89.06
2017-12-16T03:08:28.120Z,88.87
2017-12-16T03:09:28.131Z,89.53
2017-12-16T03:10:28.147Z,89.53
2017-12-16T03:11:28.158Z,89.82
2017-12-16T03:12:28.170Z,89.44
2017-12-16T03:13:28.186Z,89.72
2017-12-16T03:14:28.198Z,89.53
2017-12-16T03:15:28.268Z,89.39
2017-12-16T03:16:28.225Z,89.39
2017-12-16T03:17:28.240Z,88.73
2017-12-16T03:18:28.249Z,88.63
2017-12-16T03:19:28.265Z,88.78
2017-12-16T03:20:28.278Z,89.34
2017-12-16T03:21:28.293Z,89.91
2017-12-16T03:22:28.305Z,89.34
2017-12-16T03:23:28.318Z,89.72
2017-12-16T03:24:28.332Z,89.06
2017-12-16T03:25:28.343Z,88.73
2017-12-16T03:26:28.358Z,88.40
2017-12-16T03:27:28.374Z,88.06
2017-12-16T03:28:28.387Z,88.35
2017-12-16T03:29:28.395Z,88.02
2017-12-16T03:30:28.409Z,87.83
2017-12-16T03:31:28.422Z,88.30
2017-12-16T03:32:28.438Z,88.21
2017-12-16T03:33:28.454Z,88.49
2017-12-16T03:34:28.464Z,88.21
2017-12-16T03:35:28.479Z,88.02
2017-12-16T03:36:28.489Z,88.02
2017-12-16T03:37:28.502Z,88.11
2017-12-16T03:38:28.516Z,88.02
2017-12-16T03:39:28.529Z,88.02
2017-12-16T03:40:28.565Z,88.21
2017-12-16T03:41:28.554Z,88.21
2017-12-16T03:42:28.568Z,88.68
2017-12-16T03:43:28.585Z,88.40
2017-12-16T03:44:28.593Z,88.49
2017-12-16T03:45:28.605Z,88.49
2017-12-16T03:46:28.620Z,88.21
2017-12-16T03:47:28.629Z,88.68
2017-12-16T03:48:28.645Z,88.59
2017-12-16T03:49:28.655Z,88.40
2017-12-16T03:50:28.668Z,88.68
2017-12-16T03:51:28.681Z,88.59
2017-12-16T03:52:28.717Z,88.30
2017-12-16T03:53:28.705Z,88.21
2017-12-16T03:54:28.719Z,88.49
2017-12-16T03:55:28.733Z,88.87
2017-12-16T03:56:28.749Z,88.87
2017-12-16T03:57:28.758Z,88.78
2017-12-16T03:58:28.769Z,89.06
2017-12-16T03:59:28.783Z,89.44
2017-12-16T04:00:28.800Z,89.44
2017-12-16T04:01:28.813Z,89.34
2017-12-16T04:02:28.826Z,88.87
2017-12-16T04:03:28.838Z,89.34
2017-12-16T04:04:28.853Z,89.06
2017-12-16T04:05:28.862Z,89.15
2017-12-16T04:06:28.874Z,89.06
2017-12-16T04:07:28.885Z,88.78
2017-12-16T04:08:28.903Z,89.72
2017-12-16T04:09:28.914Z,89.53
2017-12-16T04:10:28.931Z,89.72
2017-12-16T04:11:28.938Z,89.53
2017-12-16T04:12:28.953Z,89.34
2017-12-16T04:13:28.967Z,89.06
2017-12-16T04:14:28.979Z,88.68
2017-12-16T04:15:28.993Z,89.15
2017-12-16T04:16:29.006Z,89.15
2017-12-16T04:17:29.015Z,89.06
2017-12-16T04:18:29.030Z,89.44
2017-12-16T04:19:29.044Z,89.34
2017-12-16T04:20:29.054Z,89.25
2017-12-16T04:21:29.065Z,89.44
2017-12-16T04:22:29.082Z,88.96
2017-12-16T04:23:29.094Z,89.34
2017-12-16T04:24:29.109Z,89.15
2017-12-16T04:25:29.119Z,89.15
2017-12-16T04:26:29.136Z,89.25
2017-12-16T04:27:29.147Z,88.78
2017-12-16T04:28:29.158Z,88.78
2017-12-16T04:29:29.208Z,88.78
2017-12-16T04:30:29.191Z,89.06
2017-12-16T04:31:29.209Z,89.06
2017-12-16T04:32:29.213Z,88.40
2017-12-16T04:33:29.238Z,89.06
2017-12-16T04:34:29.236Z,89.06
2017-12-16T04:35:29.248Z,89.15
2017-12-16T04:36:29.274Z,89.06
2017-12-16T04:37:29.273Z,89.06
2017-12-16T04:38:29.299Z,88.96
2017-12-16T04:39:29.303Z,89.25
2017-12-16T04:40:29.314Z,88.87
2017-12-16T04:41:29.332Z,88.78
2017-12-16T04:42:29.337Z,89.34
2017-12-16T04:43:29.350Z,89.06
2017-12-16T04:44:29.366Z,89.06
2017-12-16T04:45:29.373Z,88.96
2017-12-16T04:46:29.389Z,88.68
2017-12-16T04:47:29.401Z,88.68
2017-12-16T04:48:29.420Z,89.06
2017-12-16T04:49:29.433Z,88.96
2017-12-16T04:50:29.444Z,89.25
2017-12-16T04:51:29.454Z,88.68
2017-12-16T04:52:29.466Z,88.78
2017-12-16T04:53:29.478Z,88.30
2017-12-16T04:54:29.491Z,88.78
2017-12-16T04:55:29.503Z,89.15
2017-12-16T04:56:29.517Z,88.40
2017-12-16T04:57:29.533Z,88.59
2017-12-16T04:58:29.547Z,89.15
2017-12-16T04:59:29.557Z,88.96
2017-12-16T05:00:29.569Z,89.44
2017-12-16T05:01:29.589Z,89.15
2017-12-16T05:02:29.594Z,89.53
2017-12-16T05:03:29.610Z,89.91
2017-12-16T05:04:29.620Z,89.53
2017-12-16T05:05:29.635Z,89.15
2017-12-16T05:06:29.658Z,89.34
2017-12-16T05:07:29.660Z,89.72
2017-12-16T05:08:29.676Z,89.53
2017-12-16T05:09:29.685Z,89.72
2017-12-16T05:10:29.698Z,89.82
2017-12-16T05:11:29.711Z,89.82
2017-12-16T05:12:29.727Z,89.91
2017-12-16T05:13:29.737Z,89.63
2017-12-16T05:14:29.749Z,89.34
2017-12-16T05:15:29.765Z,88.87
2017-12-16T05:16:29.775Z,89.34
2017-12-16T05:17:29.791Z,89.25
2017-12-16T05:18:29.803Z,90.01
2017-12-16T05:19:29.816Z,89.72
2017-12-16T05:20:29.828Z,89.72
2017-12-16T05:21:29.842Z,89.53
2017-12-16T05:22:29.854Z,89.34
2017-12-16T05:23:29.871Z,88.96
2017-12-16T05:24:29.881Z,88.96
2017-12-16T05:25:29.894Z,88.40
2017-12-16T05:26:29.909Z,88.21
2017-12-16T05:27:29.923Z,88.11
2017-12-16T05:28:29.935Z,88.96
2017-12-16T05:29:29.948Z,88.40
2017-12-16T05:30:29.960Z,88.68
2017-12-16T05:31:29.971Z,88.59
2017-12-16T05:32:29.991Z,88.87
2017-12-16T05:33:29.997Z,89.06
2017-12-16T05:34:30.010Z,89.25
2017-12-16T05:35:30.025Z,89.72
2017-12-16T05:36:30.037Z,89.34
2017-12-16T05:37:30.052Z,89.82
2017-12-16T05:38:30.069Z,90.58
2017-12-16T05:39:30.075Z,91.14
2017-12-16T05:40:30.090Z,90.29
2017-12-16T05:41:30.104Z,90.20
2017-12-16T05:42:30.114Z,89.53
2017-12-16T05:43:30.128Z,89.72
2017-12-16T05:44:30.141Z,89.06
2017-12-16T05:45:30.173Z,89.34
2017-12-16T05:46:30.166Z,88.96
2017-12-16T05:47:30.179Z,89.06
2017-12-16T05:48:30.202Z,88.96
2017-12-16T05:49:30.207Z,88.78
2017-12-16T05:50:30.225Z,89.25
2017-12-16T05:51:30.283Z,88.87
2017-12-16T05:52:30.255Z,89.15
2017-12-16T05:53:30.260Z,89.25
2017-12-16T05:54:30.272Z,89.06
2017-12-16T05:55:30.285Z,88.96
2017-12-16T05:56:30.299Z,89.06
2017-12-16T05:57:30.312Z,88.96
2017-12-16T05:58:30.337Z,88.78
2017-12-16T05:59:30.358Z,89.34
2017-12-16T06:00:30.352Z,88.96
2017-12-16T06:01:30.365Z,89.34
2017-12-16T06:02:30.383Z,90.01
2017-12-16T06:03:30.391Z,89.82
2017-12-16T06:04:30.402Z,89.63
2017-12-16T06:05:30.415Z,89.15
2017-12-16T06:06:30.428Z,89.06
2017-12-16T06:07:30.444Z,89.34
2017-12-16T06:08:30.455Z,89.34
2017-12-16T06:09:30.468Z,89.25
2017-12-16T06:10:30.487Z,89.06
2017-12-16T06:11:30.495Z,89.15
2017-12-16T06:12:30.511Z,89.25
2017-12-16T06:13:30.529Z,89.15
2017-12-16T06:14:30.534Z,88.40
2017-12-16T06:15:30.551Z,88.92
2017-12-16T06:16:30.560Z,88.68
2017-12-16T06:17:30.576Z,88.59
2017-12-16T06:18:30.615Z,88.96
2017-12-16T06:19:30.818Z,89.63
2017-12-16T06:20:30.625Z,90.20
2017-12-16T06:21:30.640Z,89.91
2017-12-16T06:22:30.642Z,90.86
2017-12-16T06:23:30.691Z,91.29
2017-12-16T06:24:30.672Z,91.52
2017-12-16T06:25:30.680Z,91.05
2017-12-16T06:26:30.711Z,90.95
2017-12-16T06:27:30.710Z,90.95
2017-12-16T06:28:30.727Z,91.86
2017-12-16T06:29:30.732Z,92.09
2017-12-16T06:30:30.756Z,91.43
2017-12-16T06:31:30.768Z,90.77
2017-12-16T06:32:31.698Z,90.58
2017-12-16T06:33:31.706Z,91.14
2017-12-16T06:34:30.800Z,90.67
2017-12-16T06:35:30.815Z,90.95
2017-12-16T06:36:30.833Z,90.39
2017-12-16T06:37:30.836Z,89.63
2017-12-16T06:38:30.862Z,89.72
2017-12-16T06:39:30.885Z,89.63
2017-12-16T06:40:30.876Z,89.72
2017-12-16T06:41:30.889Z,89.63
2017-12-16T06:42:30.908Z,90.67
2017-12-16T06:43:30.914Z,91.14
2017-12-16T06:44:30.933Z,90.58
2017-12-16T06:45:30.942Z,90.58
2017-12-16T06:46:30.960Z,90.10
2017-12-16T06:47:30.968Z,89.44
2017-12-16T06:48:30.979Z,89.82
2017-12-16T06:49:30.991Z,89.91
2017-12-16T06:50:31.007Z,90.58
2017-12-16T06:51:31.022Z,91.05
2017-12-16T06:52:31.032Z,91.43
2017-12-16T06:53:31.047Z,91.81
2017-12-16T06:54:31.059Z,91.52
2017-12-16T06:55:31.073Z,91.24
2017-12-16T06:56:31.077Z,90.58
2017-12-16T06:57:31.098Z,90.67
2017-12-16T06:58:31.111Z,90.58
2017-12-16T06:59:31.122Z,90.67
2017-12-16T07:00:31.140Z,90.58
2017-12-16T07:01:31.140Z,90.10
2017-12-16T07:02:31.688Z,89.53
2017-12-16T07:03:31.707Z,89.34
2017-12-16T07:04:31.745Z,89.58
2017-12-16T07:05:31.757Z,88.87
2017-12-16T07:06:31.755Z,89.53
2017-12-16T07:07:31.230Z,89.96
2017-12-16T07:08:31.239Z,89.48
2017-12-16T07:09:31.254Z,89.77
2017-12-16T07:10:31.269Z,89.77
2017-12-16T07:11:31.278Z,89.20
2017-12-16T07:12:31.293Z,88.82
2017-12-16T07:13:31.304Z,89.20
2017-12-16T07:14:31.323Z,89.20
2017-12-16T07:15:31.337Z,89.01
2017-12-16T07:16:31.348Z,89.39
2017-12-16T07:17:31.368Z,88.92
2017-12-16T07:18:31.386Z,89.01
2017-12-16T07:19:31.390Z,89.58
2017-12-16T07:20:31.400Z,90.10
2017-12-16T07:21:31.410Z,91.14
2017-12-16T07:22:31.424Z,91.33
2017-12-16T07:23:31.435Z,90.77
2017-12-16T07:24:31.447Z,90.34
2017-12-16T07:25:31.462Z,89.58
2017-12-16T07:26:31.474Z,89.96
2017-12-16T07:27:31.487Z,89.29
2017-12-16T07:28:31.501Z,89.01
2017-12-16T07:29:31.511Z,89.77
2017-12-16T07:30:31.528Z,90.20
2017-12-16T07:31:31.541Z,90.15
2017-12-16T07:32:31.554Z,89.86
2017-12-16T07:33:31.566Z,89.20
2017-12-16T07:34:31.582Z,89.58
2017-12-16T07:35:31.591Z,89.48
2017-12-16T07:36:31.607Z,89.86
2017-12-16T07:37:31.618Z,89.86
2017-12-16T07:38:31.636Z,89.86
2017-12-16T07:39:31.692Z,89.96
2017-12-16T07:40:31.661Z,90.15
2017-12-16T07:41:31.669Z,89.67
2017-12-16T07:42:31.685Z,89.96
2017-12-16T07:43:31.698Z,89.58
2017-12-16T07:44:31.714Z,90.05
2017-12-16T07:45:31.725Z,90.86
2017-12-16T07:46:31.737Z,90.86
2017-12-16T07:47:31.749Z,91.28
2017-12-16T07:48:31.766Z,90.72
2017-12-16T07:49:31.788Z,89.96
2017-12-16T07:50:31.788Z,89.86
2017-12-16T07:51:31.814Z,89.58
2017-12-16T07:52:31.828Z,88.92
2017-12-16T07:53:31.842Z,89.96
2017-12-16T07:54:31.846Z,90.43
2017-12-16T07:55:31.854Z,91.09
2017-12-16T07:56:31.873Z,90.15
2017-12-16T07:57:31.886Z,90.24
2017-12-16T07:58:31.902Z,90.15
2017-12-16T07:59:31.912Z,90.53
2017-12-16T08:00:31.922Z,90.05
2017-12-16T08:01:31.932Z,89.96
2017-12-16T08:02:31.948Z,89.96
2017-12-16T08:03:31.962Z,90.24
2017-12-16T08:04:31.975Z,89.77
2017-12-16T08:05:31.989Z,89.58
2017-12-16T08:06:32.007Z,89.81
2017-12-16T08:07:32.015Z,89.72
2017-12-16T08:08:32.031Z,89.39
2017-12-16T08:09:32.041Z,88.87
2017-12-16T08:10:32.056Z,89.29
2017-12-16T08:11:32.073Z,90.15
2017-12-16T08:12:32.082Z,90.53
2017-12-16T08:13:32.096Z,91.19
2017-12-16T08:14:32.110Z,90.34
2017-12-16T08:15:32.126Z,90.15
2017-12-16T08:16:32.142Z,90.15
2017-12-16T08:17:32.151Z,89.48
2017-12-16T08:18:32.160Z,89.58
2017-12-16T08:19:32.180Z,89.58
2017-12-16T08:20:32.193Z,90.15
2017-12-16T08:21:32.206Z,90.00
2017-12-16T08:22:32.219Z,89.86
2017-12-16T08:23:32.230Z,89.72
2017-12-16T08:24:32.244Z,89.96
2017-12-16T08:25:32.260Z,89.96
2017-12-16T08:26:32.269Z,90.91
2017-12-16T08:27:32.287Z,91.76
2017-12-16T08:28:32.298Z,91.95
2017-12-16T08:29:32.308Z,91.76
2017-12-16T08:30:32.323Z,92.04
2017-12-16T08:31:32.335Z,92.14
2017-12-16T08:32:32.353Z,91.85
2017-12-16T08:33:32.361Z,91.95
2017-12-16T08:34:32.376Z,91.28
2017-12-16T08:35:32.391Z,90.72
2017-12-16T08:36:32.400Z,90.34
2017-12-16T08:37:32.429Z,90.53
2017-12-16T08:38:32.433Z,90.53
2017-12-16T08:39:32.595Z,90.48
2017-12-16T08:40:32.456Z,90.62
2017-12-16T08:41:32.498Z,91.00
2017-12-16T08:42:32.517Z,91.00
2017-12-16T08:43:32.493Z,91.47
2017-12-16T08:44:32.510Z,91.85
2017-12-16T08:45:32.517Z,92.14
2017-12-16T08:46:32.540Z,91.28
2017-12-16T08:47:32.544Z,91.28
2017-12-16T08:48:32.568Z,92.52
2017-12-16T08:49:32.578Z,92.33
2017-12-16T08:50:32.588Z,92.71
2017-12-16T08:51:32.604Z,92.90
2017-12-16T08:52:32.611Z,93.27
2017-12-16T08:53:32.621Z,93.27
2017-12-16T08:54:32.636Z,92.80
2017-12-16T08:55:32.652Z,92.23
2017-12-16T08:56:32.669Z,91.24
2017-12-16T08:57:32.723Z,91.24
2017-12-16T08:58:32.698Z,91.28
2017-12-16T08:59:32.705Z,92.09
2017-12-16T09:00:32.718Z,91.95
2017-12-16T09:01:32.727Z,91.76
2017-12-16T09:02:32.745Z,91.52
2017-12-16T09:03:32.755Z,91.47
2017-12-16T09:04:32.771Z,91.42
2017-12-16T09:05:32.783Z,91.28
2017-12-16T09:06:32.797Z,91.66
2017-12-16T09:07:32.810Z,91.28
2017-12-16T09:08:32.826Z,91.38
2017-12-16T09:09:32.838Z,91.47
2017-12-16T09:10:32.846Z,91.14
2017-12-16T09:11:32.858Z,91.05
2017-12-16T09:12:32.874Z,90.19
2017-12-16T09:13:32.889Z,89.91
2017-12-16T09:14:32.901Z,89.25
2017-12-16T09:15:32.911Z,90.19
2017-12-16T09:16:32.926Z,90.38
2017-12-16T09:17:32.945Z,89.81
2017-12-16T09:18:32.962Z,89.81
2017-12-16T09:19:32.966Z,89.81
2017-12-16T09:20:32.986Z,90.00
2017-12-16T09:21:32.996Z,89.34
2017-12-16T09:22:33.010Z,88.77
2017-12-16T09:23:33.022Z,88.62
2017-12-16T09:24:33.035Z,88.29
2017-12-16T09:25:33.053Z,89.00
2017-12-16T09:26:33.066Z,88.10
2017-12-16T09:27:33.078Z,89.81
2017-12-16T09:28:33.107Z,90.57
2017-12-16T09:29:33.108Z,91.00
2017-12-16T09:30:33.126Z,91.05
2017-12-16T09:31:33.132Z,90.57
2017-12-16T09:32:33.146Z,90.95
2017-12-16T09:33:33.160Z,91.05
2017-12-16T09:34:33.214Z,90.67
2017-12-16T09:35:33.188Z,90.57
2017-12-16T09:36:33.199Z,90.72
2017-12-16T09:37:33.212Z,90.95
2017-12-16T09:38:33.230Z,90.95
2017-12-16T09:39:33.238Z,90.67
2017-12-16T09:40:33.253Z,90.19
2017-12-16T09:41:33.273Z,89.43
2017-12-16T09:42:33.279Z,89.62
2017-12-16T09:43:33.296Z,89.62
2017-12-16T09:44:33.320Z,89.43
2017-12-16T09:45:33.319Z,89.91
2017-12-16T09:46:33.332Z,90.57
2017-12-16T09:47:33.349Z,91.24
2017-12-16T09:48:33.364Z,90.95
2017-12-16T09:49:33.376Z,90.95
2017-12-16T09:50:33.389Z,90.57
2017-12-16T09:51:33.404Z,90.57
2017-12-16T09:52:33.464Z,90.48
2017-12-16T09:53:33.429Z,90.00
2017-12-16T09:54:33.447Z,89.15
2017-12-16T09:55:33.455Z,89.62
2017-12-16T09:56:33.468Z,89.10
2017-12-16T09:57:33.486Z,88.87
2017-12-16T09:58:33.495Z,89.06
2017-12-16T09:59:33.512Z,89.34
2017-12-16T10:00:33.526Z,88.91
2017-12-16T10:01:33.540Z,88.53
2017-12-16T10:02:33.555Z,88.15
2017-12-16T10:03:33.565Z,88.29
2017-12-16T10:04:33.579Z,88.87
2017-12-16T10:05:33.595Z,89.29
2017-12-16T10:06:33.609Z,88.29
2017-12-16T10:07:33.620Z,88.34
2017-12-16T10:08:33.638Z,87.96
2017-12-16T10:09:33.656Z,87.87
2017-12-16T10:10:33.694Z,87.96
2017-12-16T10:11:33.678Z,88.29
2017-12-16T10:12:33.693Z,88.06
2017-12-16T10:13:33.704Z,87.87
2017-12-16T10:14:33.720Z,87.49
2017-12-16T10:15:33.742Z,87.68
2017-12-16T10:16:33.747Z,87.92
2017-12-16T10:17:33.772Z,88.34
2017-12-16T10:18:33.781Z,88.53
2017-12-16T10:19:33.789Z,88.24
2017-12-16T10:20:33.802Z,87.77
2017-12-16T10:21:33.818Z,87.96
2017-12-16T10:22:33.828Z,88.15
2017-12-16T10:23:33.850Z,88.15
2017-12-16T10:24:33.863Z,87.96
2017-12-16T10:25:33.873Z,88.01
2017-12-16T10:26:33.885Z,88.68
2017-12-16T10:27:33.899Z,88.68
2017-12-16T10:28:33.918Z,88.29
2017-12-16T10:29:33.942Z,88.15
2017-12-16T10:30:33.941Z,88.15
2017-12-16T10:31:33.956Z,88.15
2017-12-16T10:32:33.971Z,87.87
2017-12-16T10:33:33.983Z,87.87
2017-12-16T10:34:34.000Z,87.11
2017-12-16T10:35:34.011Z,86.91
2017-12-16T10:36:34.027Z,86.63
2017-12-16T10:37:34.040Z,86.16
2017-12-16T10:38:34.056Z,86.44
2017-12-16T10:39:34.070Z,87.01
2017-12-16T10:40:34.734Z,87.96
2017-12-16T10:41:34.730Z,87.20
2017-12-16T10:42:34.725Z,86.82
2017-12-16T10:43:34.125Z,87.01
2017-12-16T10:44:34.144Z,87.39
2017-12-16T10:45:34.155Z,87.20
2017-12-16T10:46:34.168Z,87.82
2017-12-16T10:47:34.188Z,88.20
2017-12-16T10:48:34.192Z,87.77
2017-12-16T10:49:34.208Z,87.87
2017-12-16T10:50:34.223Z,87.49
2017-12-16T10:51:34.296Z,87.39
2017-12-16T10:52:34.249Z,87.96
2017-12-16T10:53:34.267Z,87.68
2017-12-16T10:54:34.280Z,87.25
2017-12-16T10:55:34.303Z,88.10
2017-12-16T10:56:34.307Z,87.39
2017-12-16T10:57:34.323Z,87.49
2017-12-16T10:58:34.333Z,87.11
2017-12-16T10:59:34.350Z,87.11
2017-12-16T11:00:34.365Z,86.35
2017-12-16T11:01:34.383Z,86.25
2017-12-16T11:02:34.394Z,86.54
2017-12-16T11:03:34.405Z,86.44
2017-12-16T11:04:34.425Z,86.54
2017-12-16T11:05:34.432Z,86.35
2017-12-16T11:06:34.447Z,86.54
2017-12-16T11:07:34.462Z,86.25
2017-12-16T11:08:35.301Z,85.97
2017-12-16T11:09:34.490Z,85.97
2017-12-16T11:10:34.502Z,86.44
2017-12-16T11:11:34.525Z,86.72
2017-12-16T11:12:34.534Z,87.30
2017-12-16T11:13:34.545Z,86.87
2017-12-16T11:14:34.562Z,88.10
2017-12-16T11:15:34.576Z,87.20
2017-12-16T11:16:34.590Z,87.01
2017-12-16T11:17:35.207Z,86.44
2017-12-16T11:18:35.214Z,86.63
2017-12-16T11:19:35.216Z,86.25
2017-12-16T11:20:35.222Z,86.35
2017-12-16T11:21:34.660Z,86.25
2017-12-16T11:22:34.672Z,85.78
2017-12-16T11:23:34.686Z,86.07
2017-12-16T11:24:34.701Z,86.35
2017-12-16T11:25:34.714Z,86.63
2017-12-16T11:26:34.733Z,86.16
2017-12-16T11:27:34.744Z,85.87
2017-12-16T11:28:34.755Z,85.97
2017-12-16T11:29:34.774Z,85.40
2017-12-16T11:30:34.785Z,86.16
2017-12-16T11:31:34.804Z,85.59
2017-12-16T11:32:34.815Z,85.40
2017-12-16T11:33:34.832Z,85.59
2017-12-16T11:34:34.843Z,85.30
2017-12-16T11:35:34.860Z,85.49
2017-12-16T11:36:34.875Z,86.63
2017-12-16T11:37:34.881Z,86.25
2017-12-16T11:38:34.900Z,85.78
2017-12-16T11:39:34.914Z,85.30
2017-12-16T11:40:34.929Z,85.49
2017-12-16T11:41:34.937Z,85.30
2017-12-16T11:42:34.953Z,85.59
2017-12-16T11:43:34.972Z,85.78
2017-12-16T11:44:34.983Z,86.07
2017-12-16T11:45:34.997Z,86.44
2017-12-16T11:46:35.013Z,86.54
2017-12-16T11:47:35.028Z,86.07
2017-12-16T11:48:35.041Z,86.54
2017-12-16T11:49:35.066Z,86.91
2017-12-16T11:50:35.070Z,85.59
2017-12-16T11:51:35.081Z,85.68
2017-12-16T11:52:35.093Z,86.25
2017-12-16T11:53:35.111Z,86.72
2017-12-16T11:54:35.122Z,87.01
2017-12-16T11:55:35.134Z,86.72
2017-12-16T11:56:35.156Z,86.54
2017-12-16T11:57:35.164Z,86.72
2017-12-16T11:58:35.241Z,86.91
2017-12-16T11:59:35.192Z,87.06
2017-12-16T12:00:35.205Z,87.20
2017-12-16T12:01:35.230Z,87.11
2017-12-16T12:02:35.234Z,87.68
2017-12-16T12:03:35.245Z,87.01
2017-12-16T12:04:35.263Z,87.11
2017-12-16T12:05:35.274Z,86.82
2017-12-16T12:06:35.289Z,87.30
2017-12-16T12:07:35.306Z,86.44
2017-12-16T12:08:35.323Z,85.68
2017-12-16T12:09:35.331Z,85.68
2017-12-16T12:10:35.344Z,85.21
2017-12-16T12:11:35.364Z,85.02
2017-12-16T12:12:35.373Z,85.30
2017-12-16T12:13:35.388Z,85.78
2017-12-16T12:14:35.408Z,86.25
2017-12-16T12:15:35.423Z,85.59
2017-12-16T12:16:35.432Z,85.59
2017-12-16T12:17:35.447Z,85.87
2017-12-16T12:18:35.460Z,86.16
2017-12-16T12:19:35.473Z,86.44
2017-12-16T12:20:35.489Z,86.44
2017-12-16T12:21:35.500Z,86.44
2017-12-16T12:22:35.519Z,86.91
2017-12-16T12:23:35.531Z,86.91
2017-12-16T12:24:35.543Z,86.44
2017-12-16T12:25:35.561Z,86.07
2017-12-16T12:26:35.575Z,85.97
2017-12-16T12:27:35.587Z,86.25
2017-12-16T12:28:35.606Z,86.44
2017-12-16T12:29:35.611Z,87.11
2017-12-16T12:30:35.628Z,86.35
2017-12-16T12:31:35.644Z,86.54
2017-12-16T12:32:35.656Z,86.16
2017-12-16T12:33:35.668Z,87.30
2017-12-16T12:34:35.686Z,87.39
2017-12-16T12:35:35.703Z,87.20
2017-12-16T12:36:35.719Z,86.72
2017-12-16T12:37:35.726Z,86.63
2017-12-16T12:38:35.742Z,86.25
2017-12-16T12:39:35.756Z,85.53
2017-12-16T12:40:35.769Z,85.40
2017-12-16T12:41:35.785Z,85.59
2017-12-16T12:42:35.800Z,86.16
2017-12-16T12:43:35.817Z,86.16
2017-12-16T12:44:35.829Z,85.87
2017-12-16T12:45:35.844Z,85.21
2017-12-16T12:46:35.858Z,85.63
2017-12-16T12:47:35.863Z,85.72
2017-12-16T12:48:35.883Z,85.35
2017-12-16T12:49:35.903Z,84.59
2017-12-16T12:50:35.909Z,84.49
2017-12-16T12:51:35.931Z,84.21
2017-12-16T12:52:35.943Z,84.40